Аэропорт: Элиста. Элиста

ICAO: URWI

METAR:
2024-04-22 22:00:00
URWI 222200Z AUTO 28004MPS 9999 // ///////// 10/04 Q1020
TAF:
2024-04-22 10:55:00
TAF URWI 221055Z 2212/2221 33006G12MPS 9999 SCT016 SCT020CB 
  TEMPO 2212/2215 35009G14MPS